Latest Coastal Weather Observations for Centre Island

IDD60701

Issued at 8:15 pm CST Saturday 19 April 2014 (issued every 10 minutes, with the page automatically refreshed every 10 minutes)

About coastal observations | Map of coastal stations | Coastal observations for NT | Marine services | Other Formats
Station Details ID: 014703 Name: CENTRE ISLAND Lat: -15.74 Lon: 136.82 Height: 12.2 m
Data from the previous 72 hours. | See also: Recent months at Centre Island
Date/Time
CST
Temp

°C
Wind Pressure Rain
since 9am
mm
Weather Cloud Vis
km
Sea
Height
m
Swell
Dir
 
Speed
knots
Gust
knots
hPa Trend Height
m
Period
s
Dir
19/08:00pm 28.3 E 12 15 1011.8 - 0.0 - - - - - - -
19/07:30pm 28.3 E 12 14 1011.6 - 0.0 - - - - - - -
19/07:00pm 28.4 E 12 15 1011.3 - 0.0 - - - - - - -
19/06:30pm 28.6 E 12 15 1010.9 - 0.0 - - - - - - -
19/06:00pm 28.8 E 13 15 1010.6 - 0.0 - - - - - - -
19/05:30pm 29.3 E 14 17 1010.6 - 0.0 - - - - - - -
19/05:00pm 29.9 E 17 20 1010.4 - 0.0 - - - - - - -
19/04:30pm 30.3 E 18 22 1010.2 - 0.0 - - - - - - -
19/04:00pm 30.5 E 19 23 1009.9 - 0.0 - - - - - - -
19/03:30pm 31.7 E 17 21 1009.8 - 0.0 - - - - - - -
19/03:00pm 32.1 E 16 18 1009.6 - 0.0 - - - - - - -
19/02:30pm 32.7 E 15 18 1009.9 - 0.0 - - - - - - -
19/02:00pm 31.5 E 14 18 1010.3 - 0.0 - - - - - - -
19/01:30pm 31.2 E 15 19 1010.8 - 0.0 - - - - - - -
19/01:00pm 31.6 E 19 25 1011.1 - 0.0 - - - - - - -
19/12:30pm 32.5 E 16 19 1011.4 - 0.0 - - - - - - -
19/12:00pm 32.6 E 15 19 1011.7 - 0.0 - - - - - - -
19/11:30am 32.1 ESE 11 14 1011.9 - 0.0 - - - - - - -
19/11:00am 31.8 SE 10 13 1012.3 - 0.0 - - - - - - -
19/10:30am 30.9 SSE 12 14 1012.3 - 0.0 - - - - - - -
19/10:00am 30.4 SSE 11 12 1012.7 - 0.0 - - - - - - -
19/09:30am 29.2 SSE 12 15 1012.7 - 0.0 - - - - - - -
19/09:00am 28.8 SSE 13 15 1012.3 - 0.8 - - - - - - -
19/08:30am 28.4 SSE 14 17 1012.4 - 0.8 - - - - - - -
19/08:00am 28.1 S 14 16 1012.3 - 0.8 - - - - - - -
19/07:30am 27.3 S 14 17 1012.2 - 0.8 - - - - - - -
19/07:00am 26.8 S 14 17 1011.9 - 0.8 - - - - - - -
19/06:30am 26.8 S 15 18 1011.9 - 0.8 - - - - - - -
19/06:00am 26.8 S 14 18 1011.4 - 0.8 - - - - - - -
19/05:30am 26.8 S 11 13 1011.1 - 0.8 - - - - - - -
19/05:00am 26.8 S 11 13 1011.0 - 0.8 - - - - - - -
19/04:30am 27.0 S 11 13 1010.8 - 0.8 - - - - - - -
19/04:00am 27.0 S 11 13 1010.7 - 0.8 - - - - - - -
19/03:30am 28.1 SE 7 8 1010.7 - 0.8 - - - - - - -
19/03:00am 28.1 ESE 7 8 1010.6 - 0.8 - - - - - - -
19/02:30am 28.2 E 6 7 1010.8 - 0.8 - - - - - - -
19/02:00am 28.2 E 7 9 1011.1 - 0.8 - - - - - - -
19/01:30am 28.0 ENE 7 8 1011.4 - 0.8 - - - - - - -
19/01:00am 28.1 ENE 7 9 1011.8 - 0.8 - - - - - - -
19/12:30am 28.2 ENE 7 8 1012.3 - 0.8 - - - - - - -
19/12:00am 28.4 ENE 8 9 1012.6 - 0.8 - - - - - - -
 
Date/Time
CST
Temp

°C
Wind Pressure Rain
since 9am
mm
Weather Cloud Vis
km
Sea
Height
m
Swell
Dir
 
Speed
knots
Gust
knots
hPa Trend Height
m
Period
s
Dir
18/11:30pm 28.5 ENE 10 11 1013.0 - 0.8 - - - - - - -
18/11:00pm 28.6 ENE 9 11 1013.3 - 0.8 - - - - - - -
18/10:30pm 28.5 E 8 11 1013.3 - 0.8 - - - - - - -
18/10:00pm 28.6 E 9 10 1013.3 - 0.8 - - - - - - -
18/09:30pm 28.6 E 10 12 1013.5 - 0.8 - - - - - - -
18/09:00pm 28.7 E 10 12 1013.4 - 0.8 - - - - - - -
18/08:30pm 28.7 E 10 11 1013.4 - 0.8 - - - - - - -
18/08:00pm 28.8 E 10 11 1013.2 - 0.8 - - - - - - -
18/07:30pm 28.8 E 10 12 1012.8 - 0.8 - - - - - - -
18/07:00pm 28.8 ESE 10 12 1012.4 - 0.8 - - - - - - -
18/06:30pm 28.7 E 9 11 1012.1 - 0.8 - - - - - - -
18/06:00pm 28.9 E 10 13 1011.8 - 0.8 - - - - - - -
18/05:30pm 29.1 E 9 12 1011.5 - 0.8 - - - - - - -
18/05:00pm 29.2 E 9 12 1011.4 - 0.8 - - - - - - -
18/04:30pm 29.2 E 7 9 1011.3 - 0.8 - - - - - - -
18/04:00pm 29.7 ENE 6 9 1011.2 - 0.8 - - - - - - -
18/03:30pm 29.1 ENE 7 10 1011.0 - 0.6 - - - - - - -
18/03:00pm 29.0 ENE 9 11 1011.1 - 0.6 - - - - - - -
18/02:30pm 27.7 ENE 9 11 1011.2 - 0.6 - - - - - - -
18/02:00pm 26.2 ENE 13 17 1011.3 - 0.6 - - - - - - -
18/01:30pm 25.5 E 22 27 1012.1 - 0.6 - - - - - - -
18/01:15pm 26.7 E 20 27 1012.0 - 0.2 - - - - - - -
18/01:00pm 28.2 ENE 17 20 1012.0 - 0.2 - - - - - - -
18/12:30pm 29.0 ENE 16 20 1012.4 - 0.2 - - - - - - -
18/12:07pm 28.6 NE 21 26 1012.5 - 0.2 - - - - - - -
18/12:00pm 30.9 E 17 20 1012.1 - 0.2 - - - - - - -
18/11:30am 30.4 ESE 15 19 1012.5 - 0.2 - - - - - - -
18/11:00am 30.2 ESE 15 17 1012.5 - 0.2 - - - - - - -
18/10:30am 30.1 SE 11 13 1012.3 - 0.2 - - - - - - -
18/10:00am 29.4 SSE 15 17 1012.3 - 0.2 - - - - - - -
18/09:30am 29.5 SSE 14 17 1012.4 - 0.0 - - - - - - -
18/09:00am 28.4 SE 12 15 1012.4 - 10.4 - - - - - - -
18/08:30am 27.8 SE 14 16 1012.3 - 10.4 - - - - - - -
18/08:00am 27.8 SSE 12 14 1012.1 - 10.4 - - - - - - -
18/07:30am 27.7 SSE 13 15 1012.0 - 10.4 - - - - - - -
18/07:00am 27.6 S 15 17 1011.5 - 10.4 - - - - - - -
18/06:30am 27.3 S 16 20 1011.2 - 10.4 - - - - - - -
18/06:00am 27.0 S 16 19 1010.8 - 10.4 - - - - - - -
18/05:30am 26.8 S 18 23 1010.8 - 10.4 - - - - - - -
18/05:25am 26.8 S 16 23 1010.8 - 10.4 - - - - - - -
18/05:00am 26.9 S 10 11 1010.6 - 10.4 - - - - - - -
18/04:30am 27.0 S 10 11 1010.6 - 10.4 - - - - - - -
18/04:00am 26.9 S 9 11 1010.6 - 10.4 - - - - - - -
18/03:30am 27.7 S 7 9 1010.8 - 10.4 - - - - - - -
18/03:00am 27.8 SE 6 8 1010.6 - 10.4 - - - - - - -
18/02:30am 27.7 SE 7 9 1010.8 - 10.4 - - - - - - -
18/02:00am 27.8 SE 7 8 1010.9 - 10.4 - - - - - - -
18/01:30am 27.9 ESE 7 8 1011.2 - 10.4 - - - - - - -
18/01:00am 27.7 SE 8 9 1011.4 - 10.4 - - - - - - -
18/12:30am 27.7 SE 7 8 1012.0 - 10.4 - - - - - - -
18/12:00am 27.7 SE 7 8 1012.4 - 10.4 - - - - - - -
 
Date/Time
CST
Temp

°C
Wind Pressure Rain
since 9am
mm
Weather Cloud Vis
km
Sea
Height
m
Swell
Dir
 
Speed
knots
Gust
knots
hPa Trend Height
m
Period
s
Dir
17/11:30pm 27.7 ESE 8 9 1012.8 - 10.4 - - - - - - -
17/11:00pm 27.7 ESE 9 11 1013.0 - 10.4 - - - - - - -
17/10:30pm 27.8 SE 9 10 1013.2 - 10.4 - - - - - - -
17/10:00pm 27.5 SSE 10 12 1013.2 - 10.4 - - - - - - -
17/09:30pm 27.9 SE 10 11 1013.2 - 10.4 - - - - - - -
17/09:00pm 27.9 SE 9 11 1013.0 - 10.4 - - - - - - -
17/08:30pm 27.7 SE 11 13 1012.8 - 10.4 - - - - - - -
17/08:00pm 27.8 SE 11 13 1012.6 - 10.4 - - - - - - -
17/07:30pm 27.4 SSE 12 14 1012.2 - 10.4 - - - - - - -
17/07:00pm 27.9 SSE 14 16 1011.8 - 10.4 - - - - - - -
17/06:30pm 28.3 SE 18 20 1011.4 - 10.4 - - - - - - -
17/06:00pm 28.5 ESE 14 16 1011.1 - 10.4 - - - - - - -
17/05:30pm 28.8 ESE 15 19 1010.8 - 10.4 - - - - - - -
17/05:00pm 29.0 ESE 14 16 1010.4 - 10.4 - - - - - - -
17/04:30pm 28.9 E 13 17 1010.2 - 10.4 - - - - - - -
17/04:00pm 27.8 E 13 19 1010.3 - 10.4 - - - - - - -
17/03:30pm 28.0 E 11 14 1010.3 - 9.2 - - - - - - -
17/03:00pm 28.0 E 10 13 1009.9 - 9.2 - - - - - - -
17/02:30pm 26.4 E 20 24 1010.3 - 9.0 - - - - - - -
17/02:10pm 26.6 ESE 25 31 1010.6 - 6.2 - - - - - - -
17/02:01pm 30.5 E 15 30 1010.6 - 5.8 - - - - - - -
17/02:00pm 31.0 E 14 19 1010.6 - 5.8 - - - - - - -
17/01:30pm 30.8 E 14 19 1010.8 - 5.8 - - - - - - -
17/01:00pm 29.8 E 17 21 1011.1 - 5.8 - - - - - - -
17/12:30pm 29.5 ENE 17 23 1011.5 - 5.6 - - - - - - -
17/12:00pm 30.2 E 17 21 1011.6 - 5.6 - - - - - - -
17/11:30am 29.6 E 15 18 1012.1 - 5.6 - - - - - - -
17/11:00am 28.5 SE 13 14 1012.2 - 5.4 - - - - - - -
17/10:30am 27.6 SE 13 16 1012.5 - 5.4 - - - - - - -
17/10:00am 25.7 SE 20 25 1012.9 - 5.4 - - - - - - -
17/09:30am 25.3 SE 23 28 1013.0 - 5.2 - - - - - - -
17/09:00am 26.9 ESE 17 19 1012.5 - 0.0 - - - - - - -
17/08:47am 27.4 ESE 20 23 1012.2 - 0.0 - - - - - - -
17/08:33am 27.2 E 23 32 1012.1 - 0.0 - - - - - - -
17/08:30am 27.6 ESE 25 32 1012.1 - 0.0 - - - - - - -
17/08:24am 28.2 ESE 23 26 1012.0 - 0.0 - - - - - - -
17/08:00am 28.1 SSE 16 18 1011.4 - 0.0 - - - - - - -
17/07:30am 27.9 SSE 15 17 1011.4 - 0.0 - - - - - - -
17/07:00am 27.5 SSE 17 19 1011.3 - 0.0 - - - - - - -
17/06:30am 27.5 SSE 17 19 1011.3 - 0.0 - - - - - - -
17/06:00am 27.5 S 15 18 1010.6 - 0.0 - - - - - - -
17/05:30am 27.2 S 16 20 1010.5 - 0.0 - - - - - - -
17/05:00am 27.7 SSE 14 18 1010.4 - 0.0 - - - - - - -
17/04:30am 28.0 SE 10 11 1009.8 - 0.0 - - - - - - -
17/04:00am 28.2 SE 9 10 1009.7 - 0.0 - - - - - - -
17/03:30am 28.3 SSE 8 9 1009.6 - 0.0 - - - - - - -
17/03:00am 28.9 ESE 9 11 1009.6 - 0.0 - - - - - - -
17/02:30am 28.8 E 8 10 1009.9 - 0.0 - - - - - - -
17/02:00am 28.8 E 8 10 1010.0 - 0.0 - - - - - - -
17/01:30am 28.7 E 7 8 1010.2 - 0.0 - - - - - - -
17/01:00am 28.7 E 6 8 1010.4 - 0.0 - - - - - - -
17/12:30am 28.7 E 7 8 1010.7 - 0.0 - - - - - - -
17/12:00am 28.7 E 7 8 1010.8 - 0.0 - - - - - - -
 
Date/Time
CST
Temp

°C
Wind Pressure Rain
since 9am
mm
Weather Cloud Vis
km
Sea
Height
m
Swell
Dir
 
Speed
knots
Gust
knots
hPa Trend Height
m
Period
s
Dir
16/11:30pm 28.8 ENE 6 8 1011.1 - 0.0 - - - - - - -
16/11:00pm 29.0 ENE 8 9 1011.2 - 0.0 - - - - - - -
16/10:30pm 29.2 ENE 9 11 1011.3 - 0.0 - - - - - - -
16/10:00pm 29.3 ENE 10 13 1011.5 - 0.0 - - - - - - -
16/09:30pm 29.3 ENE 9 11 1011.4 - 0.0 - - - - - - -
16/09:00pm 29.4 ENE 10 13 1011.0 - 0.0 - - - - - - -
16/08:30pm 29.3 NE 9 11 1010.7 - 0.0 - - - - - - -

Other Formats:

Comma delimited format used in spreadsheet applications
http://www.bom.gov.au/fwo/IDD60701/IDD60701.94248.axf

JavaScript Object Notation format (JSON) in row-major order
http://www.bom.gov.au/fwo/IDD60701/IDD60701.94248.json